Time;durP1;ratioP1;P1;durP2;ratioP2;P2;SDS_P1;SDS_P2;PMS_P1;PMS_P2;Temp;Humidity;BMP_temperature;BMP_pressure;BME280_temperature;BME280_humidity;BME280_pressure;Samples;Min_cycle;Max_cycle;Signal;HPM_P1;HPM_P2
2023/07/27 00:01:46;;;;;;;11.90;5.68;;;;;;;17.07;92.94;100880.09;5047940;28;20120;-75
2023/07/27 00:04:18;;;;;;;9.30;5.85;;;;;;;17.10;93.45;100871.72;5047136;28;20044;-75
2023/07/27 00:06:46;;;;;;;8.43;6.00;;;;;;;16.99;95.63;100872.69;5048861;28;20502;-74
2023/07/27 00:09:15;;;;;;;9.20;5.95;;;;;;;17.09;94.96;100867.34;5069325;28;20755;-74
2023/07/27 00:11:45;;;;;;;8.20;5.90;;;;;;;17.08;94.04;100868.34;5047028;28;20041;-74
2023/07/27 00:14:14;;;;;;;8.07;5.85;;;;;;;17.11;95.36;100870.72;5045719;28;20925;-74
2023/07/27 00:16:45;;;;;;;9.43;5.88;;;;;;;17.10;96.28;100863.66;5026889;28;20049;-74
2023/07/27 00:19:12;;;;;;;11.88;6.60;;;;;;;17.13;97.42;100866.06;5046083;28;20064;-74
2023/07/27 00:21:38;;;;;;;9.55;6.05;;;;;;;17.07;98.17;100861.25;5028561;28;20815;-74
2023/07/27 00:24:04;;;;;;;7.72;5.72;;;;;;;17.09;97.32;100856.56;5045179;28;20619;-75
2023/07/27 00:26:30;;;;;;;11.88;6.13;;;;;;;17.03;98.32;100860.66;5072365;27;20049;-74
2023/07/27 00:28:55;;;;;;;12.25;5.97;;;;;;;17.04;98.14;100858.81;5059564;28;20076;-75
2023/07/27 00:31:21;;;;;;;8.63;5.88;;;;;;;17.01;97.11;100857.25;5043555;28;20041;-74
2023/07/27 00:33:46;;;;;;;9.10;6.38;;;;;;;17.09;96.94;100848.47;5038930;28;20025;-75
2023/07/27 00:36:13;;;;;;;11.85;7.05;;;;;;;17.05;96.83;100855.13;5040868;28;20029;-74
2023/07/27 00:38:43;;;;;;;11.52;6.75;;;;;;;17.01;96.24;100849.16;5045698;28;20566;-75
2023/07/27 00:41:09;;;;;;;11.07;6.80;;;;;;;16.94;96.21;100849.88;5049439;28;20037;-74
2023/07/27 00:43:34;;;;;;;10.45;6.75;;;;;;;17.01;96.21;100846.47;5049476;28;20780;-75
2023/07/27 00:46:00;;;;;;;10.43;6.55;;;;;;;17.04;95.90;100839.97;5049578;28;20500;-75
2023/07/27 00:48:28;;;;;;;9.88;6.07;;;;;;;17.11;96.46;100845.63;5078202;28;20033;-75
2023/07/27 00:50:54;;;;;;;10.70;6.93;;;;;;;17.17;96.83;100834.28;5043653;28;20041;-74
2023/07/27 00:53:22;;;;;;;9.20;7.30;;;;;;;17.08;97.09;100833.31;5054413;28;20045;-74
2023/07/27 00:55:47;;;;;;;11.63;7.18;;;;;;;17.18;97.19;100844.94;5049341;28;20036;-74
2023/07/27 00:58:22;;;;;;;12.95;7.38;;;;;;;17.10;98.35;100831.31;5021585;28;20041;-74
2023/07/27 01:00:47;;;;;;;17.60;8.07;;;;;;;17.14;98.47;100838.13;5048670;28;20439;-74
2023/07/27 01:03:19;;;;;;;11.40;7.63;;;;;;;17.02;100.00;100834.72;5047388;28;20036;-74
2023/07/27 01:05:45;;;;;;;14.68;7.90;;;;;;;17.08;100.00;100833.31;5053703;28;20041;-74
2023/07/27 01:08:15;;;;;;;13.43;8.32;;;;;;;17.08;100.00;100841.38;5078961;27;20150;-74
2023/07/27 01:11:45;;;;;;;14.65;8.77;;;;;;;16.95;100.00;100838.94;5048045;28;20129;-74
2023/07/27 01:14:45;;;;;;;14.52;9.60;;;;;;;16.88;100.00;100850.41;5003553;28;20080;-74
2023/07/27 01:17:51;;;;;;;13.88;10.30;;;;;;;16.71;100.00;100836.59;5025408;28;20041;-74
2023/07/27 01:20:38;;;;;;;15.43;9.57;;;;;;;16.76;100.00;100838.88;5002441;28;20045;-75
2023/07/27 01:23:48;;;;;;;17.65;10.40;;;;;;;16.61;100.00;100838.38;5025880;28;20040;-74
2023/07/27 01:26:53;;;;;;;15.25;10.73;;;;;;;16.39;100.00;100835.88;5006499;28;20053;-74
2023/07/27 01:29:33;;;;;;;19.73;11.30;;;;;;;16.42;100.00;100836.47;4980686;28;20060;-74
2023/07/27 01:32:02;;;;;;;23.25;11.40;;;;;;;16.33;100.00;100834.59;5009980;28;20050;-74
2023/07/27 01:34:32;;;;;;;16.15;10.57;;;;;;;16.23;100.00;100836.38;5009989;28;20041;-74
2023/07/27 01:37:09;;;;;;;15.70;11.65;;;;;;;16.26;100.00;100825.34;5009937;28;20037;-74
2023/07/27 01:39:49;;;;;;;17.30;10.63;;;;;;;16.43;100.00;100826.56;5004216;28;20042;-74
2023/07/27 01:42:17;;;;;;;15.68;11.43;;;;;;;16.33;100.00;100818.44;5027716;28;20125;-73
2023/07/27 01:44:46;;;;;;;17.90;11.88;;;;;;;16.44;100.00;100818.34;5033140;28;20089;-74
2023/07/27 01:47:17;;;;;;;14.73;10.75;;;;;;;16.47;100.00;100822.63;5042135;28;20039;-73
2023/07/27 01:49:46;;;;;;;15.75;12.48;;;;;;;16.26;100.00;100814.56;5049525;28;20032;-74
2023/07/27 01:52:15;;;;;;;23.48;13.23;;;;;;;16.26;100.00;100804.66;5041494;28;20117;-74
2023/07/27 01:54:47;;;;;;;20.25;12.38;;;;;;;16.23;100.00;100807.63;5050244;28;20119;-73
2023/07/27 01:57:17;;;;;;;19.35;11.95;;;;;;;16.17;100.00;100801.94;5046247;28;20078;-73
2023/07/27 01:59:44;;;;;;;19.40;12.10;;;;;;;16.08;100.00;100805.44;5049705;28;20057;-73
2023/07/27 02:02:15;;;;;;;17.00;11.90;;;;;;;16.06;100.00;100802.84;5055583;28;20039;-73
2023/07/27 02:04:43;;;;;;;17.20;12.27;;;;;;;16.17;100.00;100805.50;5077127;28;20535;-73
2023/07/27 02:07:09;;;;;;;19.67;11.93;;;;;;;16.21;100.00;100797.97;5049715;28;20037;-73
2023/07/27 02:09:34;;;;;;;17.33;12.55;;;;;;;16.28;100.00;100796.47;5048928;28;20037;-73
2023/07/27 02:12:07;;;;;;;17.92;12.93;;;;;;;16.30;100.00;100799.88;5044946;28;20037;-73
2023/07/27 02:14:47;;;;;;;19.05;13.23;;;;;;;16.15;100.00;100799.38;5048507;28;20056;-72
2023/07/27 02:17:33;;;;;;;21.40;13.77;;;;;;;16.08;100.00;100792.00;5046920;28;20033;-73
2023/07/27 02:20:02;;;;;;;22.38;12.95;;;;;;;16.11;100.00;100787.16;5047124;28;20033;-72
2023/07/27 02:22:29;;;;;;;20.33;13.45;;;;;;;16.08;100.00;100790.16;5046880;28;20064;-73
2023/07/27 02:24:55;;;;;;;21.00;14.30;;;;;;;16.03;100.00;100787.00;5047577;28;20041;-72
2023/07/27 02:27:21;;;;;;;24.70;14.90;;;;;;;15.97;100.00;100782.16;5029464;28;20033;-73
2023/07/27 02:29:47;;;;;;;24.15;15.30;;;;;;;15.96;100.00;100775.06;5079691;28;20213;-73
2023/07/27 02:32:13;;;;;;;21.77;14.68;;;;;;;15.94;100.00;100777.91;5062820;28;20092;-72
2023/07/27 02:34:38;;;;;;;27.00;15.82;;;;;;;15.86;100.00;100768.78;5045761;28;20033;-72
2023/07/27 02:37:07;;;;;;;22.10;15.30;;;;;;;15.88;100.00;100773.06;5061206;28;20029;-73
2023/07/27 02:39:33;;;;;;;24.63;15.43;;;;;;;15.98;100.00;100773.09;5078316;27;20052;-73
2023/07/27 02:42:02;;;;;;;25.13;15.88;;;;;;;16.05;100.00;100763.50;5045665;28;20068;-72
2023/07/27 02:44:27;;;;;;;23.45;15.68;;;;;;;16.02;100.00;100767.34;5052125;28;20040;-73
2023/07/27 02:46:53;;;;;;;28.50;16.23;;;;;;;16.00;100.00;100763.06;5046220;28;20029;-73
2023/07/27 02:49:18;;;;;;;32.35;19.40;;;;;;;16.00;100.00;100763.91;5047376;28;20534;-73
2023/07/27 02:51:44;;;;;;;37.22;20.13;;;;;;;15.98;100.00;100765.03;5045414;28;20926;-73
2023/07/27 02:54:13;;;;;;;29.42;20.05;;;;;;;16.07;100.00;100760.69;5055018;28;20056;-73
2023/07/27 02:56:45;;;;;;;33.50;21.40;;;;;;;16.09;100.00;100754.19;5046605;28;20037;-73
2023/07/27 02:59:14;;;;;;;32.38;21.48;;;;;;;16.02;100.00;100759.25;5050911;28;20676;-73
2023/07/27 03:01:43;;;;;;;33.40;21.40;;;;;;;15.99;100.00;100754.13;5060855;28;20086;-73
2023/07/27 03:04:15;;;;;;;34.10;21.70;;;;;;;15.97;100.00;100750.75;5072620;27;20041;-73
2023/07/27 03:06:43;;;;;;;36.40;23.48;;;;;;;15.97;100.00;100748.06;5044158;28;20115;-73
2023/07/27 03:09:09;;;;;;;38.58;23.08;;;;;;;15.88;100.00;100746.16;5048580;28;20033;-73
2023/07/27 03:11:38;;;;;;;40.20;23.60;;;;;;;15.88;100.00;100745.31;5027091;28;20569;-73
2023/07/27 03:14:04;;;;;;;36.95;22.17;;;;;;;15.83;100.00;100745.72;5046166;28;21783;-73
2023/07/27 03:16:30;;;;;;;32.42;21.73;;;;;;;15.85;100.00;100749.09;5062413;28;20032;-73
2023/07/27 03:18:56;;;;;;;37.55;24.25;;;;;;;15.70;100.00;100735.16;5045742;28;20048;-72
2023/07/27 03:21:22;;;;;;;40.28;24.27;;;;;;;15.66;100.00;100736.44;5042970;28;20044;-73
2023/07/27 03:23:49;;;;;;;36.63;22.02;;;;;;;15.67;100.00;100727.38;5047350;28;20044;-73
2023/07/27 03:26:15;;;;;;;36.95;24.05;;;;;;;15.59;100.00;100721.75;5059297;28;20302;-73
2023/07/27 03:28:42;;;;;;;41.53;23.67;;;;;;;15.67;100.00;100713.09;5047345;28;20029;-73
2023/07/27 03:31:45;;;;;;;42.72;24.77;;;;;;;15.78;100.00;100721.91;5061240;27;20710;-73
2023/07/27 03:34:13;;;;;;;33.03;21.45;;;;;;;15.75;100.00;100715.94;5044199;28;20037;-73
2023/07/27 03:36:43;;;;;;;32.70;21.08;;;;;;;15.67;100.00;100711.25;5045010;28;20046;-73
2023/07/27 03:39:08;;;;;;;34.45;23.30;;;;;;;15.55;100.00;100715.78;5047601;28;20148;-73
2023/07/27 03:41:34;;;;;;;34.53;21.25;;;;;;;15.52;100.00;100709.84;5045169;28;20225;-74
2023/07/27 03:44:00;;;;;;;38.78;23.08;;;;;;;15.53;100.00;100708.88;5041232;28;20048;-74
2023/07/27 03:46:26;;;;;;;36.20;22.20;;;;;;;15.58;100.00;100712.00;5046522;28;20032;-73
2023/07/27 03:48:51;;;;;;;38.08;23.38;;;;;;;15.44;100.00;100709.66;5045502;28;20029;-74
2023/07/27 03:51:17;;;;;;;33.83;21.42;;;;;;;15.47;100.00;100701.34;5042944;28;20966;-73
2023/07/27 03:53:46;;;;;;;40.33;22.70;;;;;;;15.48;100.00;100689.59;5045741;28;20076;-73
2023/07/27 03:56:12;;;;;;;35.78;23.08;;;;;;;15.31;100.00;100687.50;5047454;28;20056;-72
2023/07/27 03:58:38;;;;;;;39.83;23.05;;;;;;;15.19;100.00;100684.03;5027834;28;20034;-73
2023/07/27 04:01:04;;;;;;;39.25;22.88;;;;;;;15.20;100.00;100691.09;5022928;28;20396;-73
2023/07/27 04:03:29;;;;;;;39.92;23.05;;;;;;;15.08;100.00;100678.72;5079421;28;20543;-72
2023/07/27 04:05:55;;;;;;;34.25;22.45;;;;;;;14.89;100.00;100682.94;5046895;28;20112;-72
2023/07/27 04:08:21;;;;;;;36.65;22.90;;;;;;;15.10;100.00;100682.13;5047513;28;20036;-72
2023/07/27 04:10:47;;;;;;;31.95;20.00;;;;;;;15.10;100.00;100668.69;5031626;28;20821;-73
2023/07/27 04:13:13;;;;;;;33.42;20.02;;;;;;;15.17;100.00;100662.69;5066896;28;20679;-72
2023/07/27 04:15:39;;;;;;;35.42;20.70;;;;;;;14.91;100.00;100666.72;5052544;28;20037;-72
2023/07/27 04:18:05;;;;;;;31.20;19.48;;;;;;;15.06;100.00;100660.06;5063618;28;20156;-74
2023/07/27 04:20:31;;;;;;;29.95;19.65;;;;;;;15.11;100.00;100659.66;5042544;28;20029;-74
2023/07/27 04:22:56;;;;;;;31.92;20.67;;;;;;;15.08;100.00;100666.16;5062616;28;20037;-74
2023/07/27 04:25:23;;;;;;;32.70;19.80;;;;;;;15.16;100.00;100665.47;5048140;28;20167;-73
2023/07/27 04:27:50;;;;;;;30.45;19.33;;;;;;;15.18;100.00;100661.69;5049202;28;20072;-74
2023/07/27 04:30:16;;;;;;;30.05;18.70;;;;;;;14.95;100.00;100662.78;5048266;28;20072;-73
2023/07/27 04:32:45;;;;;;;30.90;18.40;;;;;;;14.88;100.00;100664.31;5048536;28;20029;-74
2023/07/27 04:35:15;;;;;;;35.38;17.83;;;;;;;15.14;100.00;100660.25;5080403;28;20150;-73
2023/07/27 04:37:45;;;;;;;26.25;16.55;;;;;;;15.23;100.00;100648.72;5048335;28;20059;-73
2023/07/27 04:40:14;;;;;;;27.25;17.75;;;;;;;15.16;100.00;100638.63;5047138;28;20075;-73
2023/07/27 04:42:43;;;;;;;31.77;18.60;;;;;;;15.18;100.00;100631.28;5043844;28;20064;-73
2023/07/27 04:45:09;;;;;;;26.90;16.75;;;;;;;15.04;100.00;100627.09;5045182;28;20041;-73
2023/07/27 04:47:35;;;;;;;33.65;18.48;;;;;;;15.10;100.00;100626.56;5048666;28;20279;-73
2023/07/27 04:50:01;;;;;;;27.50;16.02;;;;;;;15.10;100.00;100625.72;5050678;28;20037;-72
2023/07/27 04:52:27;;;;;;;26.52;16.88;;;;;;;15.08;100.00;100617.81;5046985;28;20036;-74
2023/07/27 04:54:53;;;;;;;27.85;16.10;;;;;;;15.04;100.00;100605.63;5042342;28;20155;-72
2023/07/27 04:57:19;;;;;;;26.10;15.60;;;;;;;15.20;100.00;100610.50;5043817;28;20042;-73
2023/07/27 04:59:44;;;;;;;27.92;16.35;;;;;;;15.27;100.00;100598.28;5047155;28;20683;-73
2023/07/27 05:02:13;;;;;;;19.75;14.10;;;;;;;15.19;100.00;100596.25;5049298;28;20882;-73
2023/07/27 05:04:38;;;;;;;26.38;17.02;;;;;;;15.20;100.00;100587.19;5049571;28;20045;-73
2023/07/27 05:07:04;;;;;;;22.88;15.15;;;;;;;15.21;100.00;100586.22;5047904;28;20045;-73
2023/07/27 05:09:30;;;;;;;29.15;17.75;;;;;;;15.15;100.00;100583.19;5039987;28;20315;-73
2023/07/27 05:11:55;;;;;;;25.00;16.63;;;;;;;15.26;100.00;100575.94;5054930;28;20600;-73
2023/07/27 05:14:21;;;;;;;24.00;16.95;;;;;;;15.20;100.00;100562.16;5078996;28;20506;-73
2023/07/27 05:16:46;;;;;;;23.20;15.40;;;;;;;15.20;100.00;100565.69;5046908;28;20121;-73
2023/07/27 05:19:12;;;;;;;25.38;16.35;;;;;;;15.08;100.00;100568.63;5042619;28;20042;-73
2023/07/27 05:21:38;;;;;;;20.80;14.60;;;;;;;15.12;100.00;100562.00;5045589;28;20130;-73
2023/07/27 05:24:04;;;;;;;20.05;13.65;;;;;;;15.19;100.00;100564.00;5046189;28;20037;-73
2023/07/27 05:26:30;;;;;;;27.85;16.15;;;;;;;15.25;100.00;100559.94;5047852;28;20228;-73
2023/07/27 05:28:55;;;;;;;21.70;13.80;;;;;;;15.23;100.00;100557.38;5047191;28;20033;-72
2023/07/27 05:31:21;;;;;;;22.83;13.57;;;;;;;15.27;100.00;100552.59;5047157;28;20033;-73
2023/07/27 05:33:46;;;;;;;23.40;14.38;;;;;;;15.19;100.00;100561.31;5041756;28;20048;-73
2023/07/27 05:36:12;;;;;;;24.58;13.95;;;;;;;15.38;100.00;100547.13;5046883;28;20993;-73
2023/07/27 05:38:38;;;;;;;21.10;13.93;;;;;;;15.34;100.00;100545.69;5051337;28;20040;-73
2023/07/27 05:41:04;;;;;;;18.13;12.55;;;;;;;15.18;100.00;100539.97;5046611;28;20044;-73
2023/07/27 05:43:29;;;;;;;21.60;12.55;;;;;;;15.41;100.00;100536.13;5046920;28;21092;-72
2023/07/27 05:45:56;;;;;;;16.80;12.27;;;;;;;15.47;100.00;100523.97;5045627;28;20069;-72
2023/07/27 05:48:22;;;;;;;23.63;14.35;;;;;;;15.32;100.00;100531.56;5042130;28;20029;-73
2023/07/27 05:50:47;;;;;;;19.13;12.70;;;;;;;15.36;100.00;100516.88;5042818;28;20044;-72
2023/07/27 05:53:13;;;;;;;22.13;12.70;;;;;;;15.48;100.00;100515.75;5060054;28;20191;-72
2023/07/27 05:55:40;;;;;;;18.88;12.95;;;;;;;15.52;100.00;100513.66;5044066;28;20107;-72
2023/07/27 05:58:06;;;;;;;20.10;11.95;;;;;;;15.52;100.00;100511.81;5045103;28;20052;-72
2023/07/27 06:00:32;;;;;;;18.15;11.57;;;;;;;15.59;100.00;100512.13;5047086;28;20188;-72
2023/07/27 06:02:58;;;;;;;17.88;11.50;;;;;;;15.58;100.00;100504.19;5046118;28;20041;-72
2023/07/27 06:05:24;;;;;;;17.17;11.55;;;;;;;15.67;100.00;100506.09;5046331;28;20048;-72
2023/07/27 06:07:49;;;;;;;16.15;10.75;;;;;;;15.59;100.00;100503.19;5070290;28;20030;-72
2023/07/27 06:10:15;;;;;;;14.55;10.13;;;;;;;15.54;100.00;100512.53;5046135;28;20029;-73
2023/07/27 06:12:42;;;;;;;18.45;12.05;;;;;;;15.61;100.00;100514.66;5048315;28;20102;-72
2023/07/27 06:15:08;;;;;;;19.48;12.07;;;;;;;15.61;100.00;100504.75;5046873;28;20028;-72
2023/07/27 06:17:34;;;;;;;16.35;10.73;;;;;;;15.58;100.00;100502.34;5040461;28;20144;-72
2023/07/27 06:20:00;;;;;;;18.42;12.10;;;;;;;15.58;100.00;100505.03;5073542;27;20443;-72
2023/07/27 06:22:25;;;;;;;19.35;11.45;;;;;;;15.58;100.00;100510.41;5056544;28;20051;-72
2023/07/27 06:24:51;;;;;;;14.65;10.15;;;;;;;15.73;100.00;100501.00;5047121;28;20037;-72
2023/07/27 06:27:16;;;;;;;10.98;9.15;;;;;;;15.88;100.00;100500.59;5047072;28;20580;-72
2023/07/27 06:29:42;;;;;;;12.70;9.38;;;;;;;15.68;100.00;100495.19;5046129;28;20391;-72
2023/07/27 06:32:08;;;;;;;14.20;10.85;;;;;;;15.77;100.00;100496.22;5059407;28;20154;-72
2023/07/27 06:34:34;;;;;;;14.23;10.75;;;;;;;15.90;100.00;100488.69;5043644;28;20037;-72
2023/07/27 06:37:00;;;;;;;13.25;9.45;;;;;;;15.94;100.00;100491.97;5047353;28;20057;-72
2023/07/27 06:39:25;;;;;;;15.25;10.35;;;;;;;15.95;100.00;100482.91;5043490;28;21158;-72
2023/07/27 06:41:51;;;;;;;11.75;8.90;;;;;;;15.92;100.00;100480.53;5048541;28;20029;-72
2023/07/27 06:44:25;;;;;;;13.55;9.02;;;;;;;16.03;100.00;100480.38;5055093;28;20102;-72
2023/07/27 06:46:50;;;;;;;10.63;8.10;;;;;;;15.94;100.00;100476.69;5049161;28;20047;-73
2023/07/27 06:49:16;;;;;;;9.57;7.50;;;;;;;16.04;100.00;100479.38;5079373;28;20040;-71
2023/07/27 06:51:46;;;;;;;9.52;7.80;;;;;;;16.06;100.00;100469.31;5058456;28;20037;-72
2023/07/27 06:54:15;;;;;;;7.85;6.30;;;;;;;16.19;100.00;100463.66;5045878;28;20984;-73
2023/07/27 06:56:44;;;;;;;8.23;6.60;;;;;;;16.23;100.00;100465.94;5038519;28;20033;-73
2023/07/27 06:59:13;;;;;;;10.43;7.80;;;;;;;16.28;100.00;100458.28;5047749;28;20087;-72
2023/07/27 07:01:42;;;;;;;7.45;5.40;;;;;;;16.27;100.00;100461.97;5047744;28;20037;-72
2023/07/27 07:04:09;;;;;;;8.40;5.60;;;;;;;16.35;100.00;100457.69;5049510;28;20041;-72
2023/07/27 07:06:34;;;;;;;6.32;4.10;;;;;;;16.42;100.00;100456.13;5047733;28;22288;-72
2023/07/27 07:09:00;;;;;;;8.43;5.97;;;;;;;16.38;100.00;100452.03;5046643;28;20350;-73
2023/07/27 07:11:25;;;;;;;6.82;5.03;;;;;;;16.43;100.00;100452.44;5040035;28;20033;-73
2023/07/27 07:13:51;;;;;;;6.38;4.82;;;;;;;16.52;100.00;100444.34;5046798;28;20915;-73
2023/07/27 07:16:18;;;;;;;5.47;4.93;;;;;;;16.53;100.00;100451.44;5043363;28;20037;-72
2023/07/27 07:18:43;;;;;;;5.88;5.00;;;;;;;16.60;100.00;100465.16;5045547;28;20036;-72
2023/07/27 07:21:10;;;;;;;5.45;4.78;;;;;;;16.65;100.00;100452.09;5047600;28;20143;-73
2023/07/27 07:23:38;;;;;;;7.35;5.07;;;;;;;16.63;100.00;100450.56;5045990;28;20119;-73
2023/07/27 07:26:04;;;;;;;8.00;5.57;;;;;;;16.63;100.00;100456.78;5029482;28;20843;-73
2023/07/27 07:28:30;;;;;;;5.80;5.05;;;;;;;16.67;100.00;100446.59;5029179;28;20061;-72
2023/07/27 07:30:56;;;;;;;7.22;5.25;;;;;;;16.81;100.00;100440.75;5046078;28;20737;-73
2023/07/27 07:33:22;;;;;;;6.95;5.00;;;;;;;16.85;100.00;100441.31;5045747;28;20037;-73
2023/07/27 07:35:48;;;;;;;5.55;4.32;;;;;;;16.96;100.00;100435.72;5044900;28;20041;-73
2023/07/27 07:38:16;;;;;;;5.57;4.72;;;;;;;17.11;100.00;100423.44;5047216;28;20033;-73
2023/07/27 07:40:46;;;;;;;5.22;4.03;;;;;;;17.13;100.00;100418.78;5035806;28;20042;-73
2023/07/27 07:43:13;;;;;;;4.88;4.38;;;;;;;17.08;100.00;100419.22;5040369;28;20068;-72
2023/07/27 07:45:43;;;;;;;5.68;5.18;;;;;;;17.03;100.00;100420.69;5044162;28;20045;-72
2023/07/27 07:48:09;;;;;;;4.43;4.00;;;;;;;17.03;100.00;100426.06;5057597;28;20052;-72
2023/07/27 07:50:38;;;;;;;5.05;4.60;;;;;;;17.25;100.00;100427.50;5051055;28;20124;-72
2023/07/27 07:53:07;;;;;;;6.00;5.35;;;;;;;17.43;100.00;100420.31;5049762;28;20029;-72
2023/07/27 07:55:36;;;;;;;8.23;5.70;;;;;;;17.32;100.00;100413.28;5050172;28;20060;-72
2023/07/27 07:58:01;;;;;;;7.82;5.85;;;;;;;17.32;100.00;100405.19;5059451;28;20076;-72
2023/07/27 08:00:27;;;;;;;9.68;6.00;;;;;;;17.31;100.00;100414.25;5051565;28;20048;-72
2023/07/27 08:02:53;;;;;;;5.90;5.30;;;;;;;17.38;100.00;100406.44;5037123;28;20040;-72
2023/07/27 08:05:18;;;;;;;8.13;7.32;;;;;;;17.29;100.00;100401.94;5049464;28;20409;-72
2023/07/27 08:07:44;;;;;;;7.55;6.53;;;;;;;17.37;100.00;100402.06;5049625;28;20052;-72
2023/07/27 08:10:19;;;;;;;6.85;6.25;;;;;;;17.40;100.00;100401.72;5060965;28;20063;-72
2023/07/27 08:12:45;;;;;;;6.90;6.15;;;;;;;17.49;100.00;100398.13;5046957;28;20037;-71
2023/07/27 08:15:13;;;;;;;7.25;6.43;;;;;;;17.52;100.00;100397.84;5056493;28;20197;-72
2023/07/27 08:17:47;;;;;;;6.13;5.20;;;;;;;17.87;100.00;100390.75;5052707;28;20147;-72
2023/07/27 08:20:16;;;;;;;6.78;6.07;;;;;;;17.92;100.00;100374.94;5051145;28;20029;-72
2023/07/27 08:22:47;;;;;;;5.68;5.03;;;;;;;18.12;100.00;100370.19;5050754;28;20129;-72
2023/07/27 08:25:15;;;;;;;5.68;5.18;;;;;;;18.25;100.00;100361.72;5076857;27;20954;-71
2023/07/27 08:27:45;;;;;;;7.50;5.57;;;;;;;18.58;100.00;100347.41;5049093;28;20041;-72
2023/07/27 08:30:17;;;;;;;5.95;5.30;;;;;;;18.60;100.00;100336.44;5043848;28;20991;-72
2023/07/27 08:32:46;;;;;;;6.03;5.50;;;;;;;18.58;100.00;100342.00;5038463;28;20038;-72
2023/07/27 08:35:16;;;;;;;6.28;5.68;;;;;;;18.49;100.00;100342.13;5045162;28;20044;-72
2023/07/27 08:37:45;;;;;;;6.15;5.65;;;;;;;18.50;100.00;100338.41;5046699;28;20029;-73
2023/07/27 08:40:12;;;;;;;6.53;5.90;;;;;;;18.38;100.00;100327.03;5047770;28;20028;-73
2023/07/27 08:42:44;;;;;;;7.40;6.43;;;;;;;18.55;100.00;100336.06;5047259;28;20040;-72
2023/07/27 08:45:14;;;;;;;7.20;6.47;;;;;;;18.60;100.00;100339.97;5044309;28;20045;-72
2023/07/27 08:47:43;;;;;;;7.80;6.80;;;;;;;18.62;100.00;100332.56;5026588;28;20330;-72
2023/07/27 08:50:16;;;;;;;7.18;6.47;;;;;;;18.79;100.00;100329.97;5046138;28;20044;-71
2023/07/27 08:52:43;;;;;;;9.18;7.70;;;;;;;19.01;100.00;100318.53;5047845;28;20822;-72
2023/07/27 08:55:10;;;;;;;7.50;6.80;;;;;;;19.32;100.00;100312.53;5044301;28;20909;-71
2023/07/27 08:57:43;;;;;;;7.10;6.50;;;;;;;19.37;100.00;100311.00;5046134;28;20029;-74
2023/07/27 09:00:15;;;;;;;7.60;6.85;;;;;;;19.36;100.00;100309.31;5041444;28;20029;-71
2023/07/27 09:02:43;;;;;;;8.30;6.03;;;;;;;19.51;100.00;100297.84;5042569;28;20033;-74
2023/07/27 09:05:09;;;;;;;7.13;6.30;;;;;;;19.34;100.00;100299.69;5048806;28;20128;-74
2023/07/27 09:07:35;;;;;;;7.88;6.43;;;;;;;19.54;100.00;100302.94;5048863;28;20037;-74
2023/07/27 09:10:06;;;;;;;6.38;5.72;;;;;;;19.72;100.00;100300.06;5042127;28;20041;-71
2023/07/27 09:12:32;;;;;;;5.53;5.03;;;;;;;19.65;100.00;100300.75;5048730;28;20358;-74
2023/07/27 09:14:58;;;;;;;5.53;5.03;;;;;;;19.44;100.00;100308.50;5042419;28;20116;-74
2023/07/27 09:17:24;;;;;;;9.15;5.63;;;;;;;19.35;100.00;100307.63;5040821;28;20041;-74
2023/07/27 09:19:50;;;;;;;5.45;4.95;;;;;;;19.38;100.00;100306.47;5048302;28;20033;-71
2023/07/27 09:22:16;;;;;;;5.35;4.82;;;;;;;19.14;100.00;100312.69;5046141;28;20044;-74
2023/07/27 09:24:44;;;;;;;5.97;4.78;;;;;;;19.23;100.00;100308.09;5047967;28;20948;-74
2023/07/27 09:27:14;;;;;;;5.00;3.92;;;;;;;18.80;100.00;100313.59;5050788;28;20040;-73
2023/07/27 09:29:56;;;;;;;5.47;4.07;;;;;;;18.85;100.00;100315.78;5045505;28;20104;-74
2023/07/27 09:32:21;;;;;;;4.57;3.93;;;;;;;18.75;100.00;100309.69;5048304;28;20271;-74
2023/07/27 09:34:55;;;;;;;5.82;4.63;;;;;;;18.60;100.00;100326.47;5045325;28;20515;-74
2023/07/27 09:37:23;;;;;;;5.18;4.63;;;;;;;18.69;100.00;100326.53;5055512;28;20033;-74
2023/07/27 09:39:48;;;;;;;7.43;6.72;;;;;;;18.62;100.00;100329.00;5046981;28;20034;-74
2023/07/27 09:42:17;;;;;;;6.55;5.72;;;;;;;18.80;100.00;100318.97;5047826;28;20243;-74
2023/07/27 09:44:50;;;;;;;6.70;6.10;;;;;;;18.86;100.00;100312.06;5048453;28;20037;-74
2023/07/27 09:47:23;;;;;;;7.43;6.72;;;;;;;18.79;100.00;100320.00;5048812;28;20064;-74
2023/07/27 09:49:53;;;;;;;6.57;5.97;;;;;;;18.92;100.00;100319.53;5048005;28;20033;-73
2023/07/27 09:52:20;;;;;;;8.18;7.05;;;;;;;18.99;100.00;100322.44;5047860;28;20080;-74
2023/07/27 09:54:49;;;;;;;7.85;7.05;;;;;;;19.03;100.00;100315.69;5047278;28;20045;-74
2023/07/27 09:57:18;;;;;;;8.35;7.45;;;;;;;19.10;100.00;100311.31;5045568;28;20108;-74
2023/07/27 09:59:44;;;;;;;8.70;7.93;;;;;;;18.98;100.00;100305.38;5045584;28;20040;-74
2023/07/27 10:02:13;;;;;;;8.63;7.93;;;;;;;18.97;100.00;100303.66;5047404;28;20033;-74
2023/07/27 10:04:49;;;;;;;9.25;7.57;;;;;;;19.25;100.00;100304.25;5045255;28;20197;-75
2023/07/27 10:07:16;;;;;;;8.43;7.70;;;;;;;19.55;100.00;100304.59;5042581;28;20538;-74
2023/07/27 10:10:08;;;;;;;8.10;7.30;;;;;;;19.67;100.00;100296.00;5048838;28;20065;-74
2023/07/27 10:12:34;;;;;;;8.27;7.57;;;;;;;19.73;100.00;100293.63;5045012;28;20926;-74
2023/07/27 10:15:19;;;;;;;8.95;7.93;;;;;;;19.64;100.00;100298.22;5042244;28;20397;-74
2023/07/27 10:17:48;;;;;;;8.52;7.63;;;;;;;19.62;100.00;100292.97;5048523;28;20552;-72
2023/07/27 10:20:46;;;;;;;8.45;7.53;;;;;;;19.80;100.00;100290.09;5047051;28;20108;-74
2023/07/27 10:23:31;;;;;;;8.65;7.75;;;;;;;19.88;100.00;100298.22;5041661;28;20041;-74
2023/07/27 10:26:02;;;;;;;9.05;7.30;;;;;;;19.93;100.00;100286.88;5044958;28;20045;-74
2023/07/27 10:28:49;;;;;;;7.78;7.07;;;;;;;19.70;100.00;100280.47;5037529;28;20087;-74
2023/07/27 10:31:26;;;;;;;6.95;6.25;;;;;;;19.39;100.00;100287.38;5040493;28;20084;-75
2023/07/27 10:33:53;;;;;;;7.18;6.10;;;;;;;19.52;100.00;100294.97;5044908;28;20905;-74
2023/07/27 10:36:20;;;;;;;6.13;5.60;;;;;;;19.54;100.00;100300.22;5057904;28;20044;-73
2023/07/27 10:38:53;;;;;;;6.15;5.65;;;;;;;19.49;100.00;100300.72;5048429;28;20033;-74
2023/07/27 10:41:24;;;;;;;6.93;6.32;;;;;;;19.54;100.00;100297.50;5043717;28;20140;-75
2023/07/27 10:44:08;;;;;;;6.30;5.72;;;;;;;19.83;100.00;100294.31;5047477;28;20828;-74
2023/07/27 10:46:46;;;;;;;6.82;5.57;;;;;;;20.25;100.00;100293.22;5046555;28;20099;-73
2023/07/27 10:49:16;;;;;;;7.80;6.07;;;;;;;20.24;100.00;100286.13;5046372;28;20037;-73
2023/07/27 10:51:48;;;;;;;6.50;5.70;;;;;;;20.68;100.00;100276.53;5038810;28;20518;-73
2023/07/27 10:54:17;;;;;;;5.28;4.80;;;;;;;20.72;100.00;100268.84;5045140;28;20049;-73
2023/07/27 10:56:43;;;;;;;6.78;6.15;;;;;;;20.65;100.00;100279.56;5042346;28;20052;-74
2023/07/27 10:59:17;;;;;;;6.10;5.50;;;;;;;20.50;100.00;100277.78;5042237;28;20036;-72
2023/07/27 11:01:47;;;;;;;5.80;5.30;;;;;;;20.33;100.00;100280.53;5038845;28;20111;-73
2023/07/27 11:04:17;;;;;;;6.13;5.63;;;;;;;20.34;100.00;100282.22;5035520;28;21089;-73
2023/07/27 11:06:45;;;;;;;6.18;5.68;;;;;;;20.36;100.00;100279.31;5040778;28;20067;-73
2023/07/27 11:09:16;;;;;;;7.07;5.75;;;;;;;20.20;100.00;100282.91;5036174;28;20072;-73
2023/07/27 11:11:43;;;;;;;7.18;6.47;;;;;;;20.20;100.00;100276.66;5038814;28;20049;-74
2023/07/27 11:14:10;;;;;;;6.60;6.00;;;;;;;20.15;100.00;100279.88;5047191;28;20037;-72
2023/07/27 11:16:38;;;;;;;8.60;6.82;;;;;;;20.16;100.00;100281.56;5046105;28;20041;-73
2023/07/27 11:19:06;;;;;;;7.40;6.45;;;;;;;20.13;100.00;100273.78;5047009;28;20021;-73